createdAt,value
2023-01-20T00:03:52.930Z,0
2023-01-20T00:08:54.615Z,0.88715
2023-01-20T00:13:56.410Z,0.88715
2023-01-20T00:18:58.415Z,0.88715
2023-01-20T00:24:00.367Z,0.88715
2023-01-20T00:29:01.954Z,0.88715
2023-01-20T00:34:03.613Z,0.88715
2023-01-20T00:39:05.370Z,0
2023-01-20T00:44:06.855Z,0.88715
2023-01-20T00:49:08.339Z,0
2023-01-20T00:54:10.135Z,0.88715
2023-01-20T00:59:12.049Z,0.88715
2023-01-20T01:04:14.042Z,0
2023-01-20T01:09:15.660Z,0.88715
2023-01-20T01:14:17.578Z,0
2023-01-20T01:19:19.777Z,0
2023-01-20T01:24:21.624Z,0.88715
2023-01-20T01:29:23.531Z,0
2023-01-20T01:34:25.372Z,0
2023-01-20T01:39:27.144Z,0
2023-01-20T01:44:28.942Z,0
2023-01-20T01:49:30.498Z,0.88715
2023-01-20T01:54:32.261Z,0
2023-01-20T01:59:33.789Z,0.88715
2023-01-20T02:04:36.010Z,0.88715
2023-01-20T02:09:37.874Z,0.88715
2023-01-20T02:14:39.868Z,0.88715
2023-01-20T02:19:41.669Z,0
2023-01-20T02:24:43.786Z,0
2023-01-20T02:29:45.720Z,0.88715
2023-01-20T02:34:47.752Z,0
2023-01-20T02:39:49.494Z,0
2023-01-20T02:44:51.286Z,0.88715
2023-01-20T02:49:53.116Z,0
2023-01-20T02:54:55.097Z,0
2023-01-20T02:59:57.141Z,0.88715
2023-01-20T03:04:59.126Z,0.88715
2023-01-20T03:10:01.093Z,0.88715
2023-01-20T03:15:02.751Z,0
2023-01-20T03:20:04.224Z,0.8296
2023-01-20T03:25:05.777Z,5.0163
2023-01-20T03:30:07.284Z,4.59225
2023-01-20T03:35:09.006Z,10.5308
2023-01-20T03:40:10.501Z,14.281
2023-01-20T03:45:12.039Z,19.605
2023-01-20T03:50:13.856Z,26.65025
2023-01-20T03:55:15.852Z,42.3097
2023-01-20T04:00:17.808Z,48.76875
2023-01-20T04:05:19.597Z,65.34305
2023-01-20T04:10:21.044Z,77.6632
2023-01-20T04:15:22.602Z,93.24645
2023-01-20T04:20:24.290Z,104.16515
2023-01-20T04:25:26.173Z,115.4889
2023-01-20T04:30:27.648Z,123.8063
2023-01-20T04:35:29.303Z,138.67075
2023-01-20T04:40:31.013Z,145.42125
2023-01-20T04:45:32.500Z,150.2721
2023-01-20T04:50:34.260Z,183.0815
2023-01-20T04:55:35.766Z,205.3791
2023-01-20T05:00:37.347Z,208.58705
2023-01-20T05:05:39.314Z,185.46035
2023-01-20T05:10:40.785Z,205.6187
2023-01-20T05:15:42.406Z,262.25645
2023-01-20T05:20:43.869Z,293.70055
2023-01-20T05:25:45.697Z,311.11115
2023-01-20T05:30:47.391Z,319.7423
2023-01-20T05:35:49.157Z,338.64565
2023-01-20T05:40:50.649Z,370.4225
2023-01-20T05:45:52.343Z,398.6948
2023-01-20T05:50:53.863Z,422.5593
2023-01-20T05:55:55.384Z,450.27825
2023-01-20T06:00:56.832Z,467.28195
2023-01-20T06:05:58.532Z,477.2214
2023-01-20T06:11:00.203Z,505.9919
2023-01-20T06:16:01.828Z,559.0148
2023-01-20T06:21:03.416Z,575.6876
2023-01-20T06:26:05.063Z,636.58855
2023-01-20T06:31:06.758Z,892.82885
2023-01-20T06:36:08.566Z,793.46285
2023-01-20T06:41:10.339Z,1066.09685
2023-01-20T06:46:11.898Z,820.34715
2023-01-20T06:51:13.529Z,833.4964
2023-01-20T06:56:15.178Z,803.5316
2023-01-20T07:01:16.949Z,897.6304
2023-01-20T07:06:18.691Z,919.33795
2023-01-20T07:11:20.439Z,1006.7826
2023-01-20T07:16:21.943Z,1164.34685
2023-01-20T07:21:26.124Z,987.28645
2023-01-20T07:26:28.627Z,911.4029
2023-01-20T07:31:30.475Z,1214.1809
2023-01-20T07:36:32.748Z,1287.7789
2023-01-20T07:41:34.431Z,1184.90835
2023-01-20T07:46:36.254Z,1082.5772
2023-01-20T07:51:38.364Z,1059.5208
2023-01-20T07:56:39.841Z,1064.37735
2023-01-20T08:01:41.523Z,1188.9381
2023-01-20T08:06:43.601Z,1292.0865
2023-01-20T08:11:45.410Z,1267.1834
2023-01-20T08:16:47.073Z,1365.32475
2023-01-20T08:21:49.193Z,1257.91445
2023-01-20T08:26:51.102Z,1291.75105
2023-01-20T08:31:53.148Z,1282.7379
2023-01-20T08:36:55.386Z,1202.60875
2023-01-20T08:41:57.266Z,1313.99755
2023-01-20T08:46:59.121Z,1534.8005
2023-01-20T08:52:01.227Z,1352.8025
2023-01-20T08:57:02.734Z,1548.62685
2023-01-20T09:02:04.350Z,1605.2525
2023-01-20T09:07:06.267Z,1635.85825
2023-01-20T09:12:07.758Z,1620.24575
2023-01-20T09:17:09.461Z,1679.53155
2023-01-20T09:22:11.124Z,1573.22815
2023-01-20T09:27:12.605Z,1479.16605
2023-01-20T09:32:14.099Z,1386.9703
2023-01-20T09:37:15.820Z,1582.4674
2023-01-20T09:42:17.339Z,1501.8803
2023-01-20T09:47:19.290Z,1685.87245
2023-01-20T09:52:21.203Z,1852.3849
2023-01-20T09:57:23.023Z,1874.54735
2023-01-20T10:02:24.570Z,1897.8857
2023-01-20T10:07:26.592Z,1892.4055
2023-01-20T10:12:28.394Z,1917.58015
2023-01-20T10:17:30.305Z,1964.5162
2023-01-20T10:32:59.937Z,1953.2819
2023-01-20T10:38:02.380Z,1952.4148
2023-01-20T10:43:04.916Z,1846.92015
2023-01-20T10:48:06.498Z,1981.2576
2023-01-20T10:53:08.307Z,1968.18805
2023-01-20T10:58:09.930Z,1978.5724
2023-01-20T11:03:11.770Z,2093.35225
2023-01-20T11:08:13.663Z,2104.65885
2023-01-20T11:13:15.429Z,2089.07375
2023-01-20T11:18:16.985Z,2061.52765
2023-01-20T11:23:18.692Z,2145.198
2023-01-20T11:28:20.401Z,2234.8792
2023-01-20T11:33:22.570Z,2184.32645
2023-01-20T11:38:24.479Z,2357.75955
2023-01-20T11:43:26.363Z,2339.51985
2023-01-20T11:48:28.124Z,2273.2374
2023-01-20T11:53:29.816Z,2240.1884
2023-01-20T11:58:31.621Z,2351.6384
2023-01-20T12:03:33.089Z,2413.127
2023-01-20T12:08:34.898Z,2395.25805
2023-01-20T12:13:36.544Z,2330.1203
2023-01-20T12:18:38.817Z,2299.16465
2023-01-20T12:23:40.443Z,2366.4894
2023-01-20T12:28:42.252Z,1776.1465
2023-01-20T12:33:43.786Z,1610.7569
2023-01-20T12:38:46.012Z,1806.58075
2023-01-20T12:43:48.065Z,2404.64785
2023-01-20T12:48:50.069Z,2415.76445
2023-01-20T12:53:52.136Z,1958.8418
2023-01-20T12:58:53.906Z,1068.37455
2023-01-20T13:03:56.322Z,754.0573
2023-01-20T13:08:59.137Z,667.76665
2023-01-20T13:14:01.095Z,605.835
2023-01-20T13:19:03.085Z,633.0919
2023-01-20T13:24:04.865Z,915.1494
2023-01-20T13:29:06.702Z,1776.3234
2023-01-20T13:34:08.676Z,1703.4569
2023-01-20T13:39:11.663Z,1629.5165
2023-01-20T13:44:13.869Z,1893.5697
2023-01-20T13:49:15.876Z,2040.25015
2023-01-20T13:54:18.212Z,2044.5458
2023-01-20T13:59:20.240Z,2200.25085
2023-01-20T14:04:21.938Z,2293.65905
2023-01-20T14:09:24.406Z,1766.23345
2023-01-20T14:14:26.624Z,2316.56145
2023-01-20T14:19:28.863Z,1575.7953
2023-01-20T14:24:31.289Z,2065.10735
2023-01-20T14:29:33.171Z,1901.933
2023-01-20T14:34:35.530Z,2005.91555
2023-01-20T14:39:37.905Z,1791.6008
2023-01-20T14:44:39.937Z,1719.5851
2023-01-20T14:49:41.925Z,1366.2972
2023-01-20T14:54:43.991Z,1098.57155
2023-01-20T14:59:45.932Z,1005.063
2023-01-20T15:04:47.958Z,866.9332
2023-01-20T15:09:50.914Z,307.12925
2023-01-20T15:14:52.820Z,182.511
2023-01-20T15:19:55.143Z,144.7576
2023-01-20T15:24:56.905Z,114.45635
2023-01-20T15:29:58.928Z,107.35595
2023-01-20T15:35:01.134Z,110.78635
2023-01-20T15:40:03.818Z,106.9319
2023-01-20T15:45:06.092Z,103.81525
2023-01-20T15:50:08.084Z,100.51415
2023-01-20T15:55:09.695Z,101.0675
2023-01-20T16:00:11.412Z,97.7664
2023-01-20T16:05:15.693Z,105.1064
2023-01-20T16:10:19.093Z,106.76645
2023-01-20T16:15:20.959Z,107.50425
2023-01-20T16:20:22.766Z,105.30985
2023-01-20T16:25:24.465Z,103.96355
2023-01-20T16:30:26.214Z,93.62665
2023-01-20T16:35:28.254Z,85.83415
2023-01-20T16:40:30.172Z,67.9682
2023-01-20T16:45:31.967Z,47.05035
2023-01-20T16:50:34.005Z,32.236
2023-01-20T16:55:35.990Z,24.47325
2023-01-20T17:00:37.767Z,21.21405
2023-01-20T17:05:39.883Z,11.37735
2023-01-20T17:10:41.755Z,4.59225
2023-01-20T17:15:43.567Z,3.85445
2023-01-20T17:20:45.531Z,0.4148
2023-01-20T17:25:47.422Z,0
2023-01-20T17:30:49.295Z,0.88715
2023-01-20T17:35:51.511Z,0.88715
2023-01-20T17:40:53.715Z,0.88715
2023-01-20T17:45:55.436Z,0
2023-01-20T17:50:57.599Z,0.88715
2023-01-20T17:56:11.716Z,0.88715
2023-01-20T18:01:14.760Z,0
2023-01-20T18:06:16.884Z,0
2023-01-20T18:11:18.672Z,0.88715
2023-01-20T18:16:20.286Z,0.88715
2023-01-20T18:21:22.418Z,0
2023-01-20T18:26:24.198Z,0.88715
2023-01-20T18:31:26.307Z,0
2023-01-20T18:36:27.979Z,0.88715
2023-01-20T18:41:29.967Z,0
2023-01-20T18:46:31.868Z,0
2023-01-20T18:51:34.336Z,0.88715
2023-01-20T18:56:36.331Z,0
2023-01-20T19:01:38.395Z,0.88715
2023-01-20T19:06:40.594Z,0
2023-01-20T19:11:42.609Z,0
2023-01-20T19:16:44.512Z,0
2023-01-20T19:21:46.660Z,0.88715
2023-01-20T19:26:49.080Z,0
2023-01-20T19:31:51.361Z,0.88715
2023-01-20T19:36:53.634Z,0
2023-01-20T19:41:55.852Z,0
2023-01-20T19:46:57.909Z,0.88715
2023-01-20T19:51:59.806Z,0
2023-01-20T19:57:01.675Z,0
2023-01-20T20:02:03.660Z,0.88715
2023-01-20T20:07:05.768Z,0.88715
2023-01-20T20:12:07.788Z,0.88715
2023-01-20T20:17:09.452Z,0.88715
2023-01-20T20:22:10.969Z,0
2023-01-20T20:27:12.785Z,0.88715
2023-01-20T20:32:14.393Z,0.88715
2023-01-20T20:37:16.289Z,0
2023-01-20T20:42:18.227Z,0
2023-01-20T20:47:20.003Z,0.88715
2023-01-20T20:52:21.807Z,0
2023-01-20T20:57:23.512Z,0
2023-01-20T21:02:25.578Z,0
2023-01-20T21:07:27.305Z,0.88715
2023-01-20T21:12:29.611Z,0.88715
2023-01-20T21:17:31.501Z,0
2023-01-20T21:22:33.736Z,0
2023-01-20T21:27:35.999Z,0.88715
2023-01-20T21:32:37.843Z,0.88715
2023-01-20T21:37:39.952Z,0
2023-01-20T21:42:41.935Z,0.88715
2023-01-20T21:47:43.615Z,0
2023-01-20T21:52:45.602Z,0
2023-01-20T21:57:49.484Z,0
2023-01-20T22:02:52.800Z,0
2023-01-20T22:07:54.794Z,0.88715
2023-01-20T22:12:56.869Z,0.88715
2023-01-20T22:17:58.741Z,0
2023-01-20T22:23:01.049Z,0
2023-01-20T22:28:02.926Z,0.88715
2023-01-20T22:33:04.888Z,0
2023-01-20T22:38:06.811Z,0
2023-01-20T22:43:08.612Z,0
2023-01-20T22:48:10.269Z,0
2023-01-20T22:53:11.980Z,0.88715
2023-01-20T22:58:13.521Z,0
2023-01-20T23:03:15.112Z,0
2023-01-20T23:08:17.183Z,0
2023-01-20T23:13:19.089Z,0
2023-01-20T23:18:21.021Z,0
2023-01-20T23:23:22.655Z,0.88715
2023-01-20T23:28:24.202Z,0.88715
2023-01-20T23:33:25.664Z,0
2023-01-20T23:38:27.606Z,0.88715
2023-01-20T23:43:29.498Z,0
2023-01-20T23:48:31.277Z,0.88715
2023-01-20T23:53:33.727Z,0
2023-01-20T23:58:35.495Z,0
